createdAt,value
2023-02-26T00:01:41.250Z,100.00
2023-02-26T00:04:10.185Z,100.00
2023-02-26T00:06:39.899Z,100.00
2023-02-26T00:09:07.438Z,100.00
2023-02-26T00:11:35.030Z,100.00
2023-02-26T00:14:02.790Z,100.00
2023-02-26T00:16:36.073Z,100.00
2023-02-26T00:19:05.776Z,100.00
2023-02-26T00:21:34.240Z,100.00
2023-02-26T00:24:02.426Z,100.00
2023-02-26T00:26:31.574Z,100.00
2023-02-26T00:29:00.166Z,100.00
2023-02-26T00:31:28.199Z,100.00
2023-02-26T00:33:57.552Z,100.00
2023-02-26T00:36:50.147Z,100.00
2023-02-26T00:39:36.587Z,100.00
2023-02-26T00:42:04.408Z,100.00
2023-02-26T00:44:32.513Z,100.00
2023-02-26T00:47:23.671Z,100.00
2023-02-26T00:50:05.857Z,100.00
2023-02-26T00:52:36.932Z,100.00
2023-02-26T00:55:04.824Z,100.00
2023-02-26T00:57:31.924Z,100.00
2023-02-26T00:59:59.501Z,100.00
2023-02-26T01:02:27.328Z,100.00
2023-02-26T01:04:56.410Z,100.00
2023-02-26T01:07:24.867Z,100.00
2023-02-26T01:09:52.885Z,100.00
2023-02-26T01:12:20.424Z,100.00
2023-02-26T01:14:48.403Z,100.00
2023-02-26T01:17:36.822Z,100.00
2023-02-26T01:20:25.831Z,100.00
2023-02-26T01:23:05.318Z,100.00
2023-02-26T01:25:43.554Z,100.00
2023-02-26T01:28:11.293Z,100.00
2023-02-26T01:30:39.363Z,100.00
2023-02-26T01:33:25.180Z,100.00
2023-02-26T01:35:56.313Z,100.00
2023-02-26T01:38:48.383Z,100.00
2023-02-26T01:41:34.754Z,100.00
2023-02-26T01:44:08.108Z,100.00
2023-02-26T01:47:06.436Z,100.00
2023-02-26T01:49:34.519Z,100.00
2023-02-26T01:52:07.228Z,100.00
2023-02-26T01:54:36.330Z,100.00
2023-02-26T01:57:06.189Z,100.00
2023-02-26T01:59:35.689Z,100.00
2023-02-26T02:02:08.198Z,100.00
2023-02-26T02:04:36.149Z,100.00
2023-02-26T02:07:05.646Z,100.00
2023-02-26T02:09:33.211Z,100.00
2023-02-26T02:12:35.133Z,100.00
2023-02-26T02:15:11.460Z,100.00
2023-02-26T02:18:16.930Z,100.00
2023-02-26T02:21:06.051Z,100.00
2023-02-26T02:23:59.746Z,100.00
2023-02-26T02:26:36.562Z,100.00
2023-02-26T02:29:28.433Z,100.00
2023-02-26T02:32:01.466Z,100.00
2023-02-26T02:34:35.630Z,100.00
2023-02-26T02:37:05.451Z,100.00
2023-02-26T02:39:37.770Z,100.00
2023-02-26T02:42:09.832Z,100.00
2023-02-26T02:44:41.124Z,100.00
2023-02-26T02:47:10.108Z,100.00
2023-02-26T02:50:03.347Z,100.00
2023-02-26T02:52:39.251Z,100.00
2023-02-26T02:55:13.561Z,100.00
2023-02-26T02:57:48.897Z,100.00
2023-02-26T03:00:17.443Z,100.00
2023-02-26T03:02:53.199Z,100.00
2023-02-26T03:05:21.112Z,100.00
2023-02-26T03:07:55.997Z,100.00
2023-02-26T03:10:23.727Z,100.00
2023-02-26T03:12:51.056Z,100.00
2023-02-26T03:15:42.634Z,100.00
2023-02-26T03:18:23.310Z,100.00
2023-02-26T03:21:27.342Z,100.00
2023-02-26T03:24:06.414Z,100.00
2023-02-26T03:26:41.042Z,100.00
2023-02-26T03:29:31.681Z,100.00
2023-02-26T03:32:04.480Z,100.00
2023-02-26T03:34:51.833Z,100.00
2023-02-26T03:37:23.393Z,100.00
2023-02-26T03:39:54.921Z,100.00
2023-02-26T03:43:07.430Z,100.00
2023-02-26T03:45:36.305Z,100.00
2023-02-26T03:48:06.888Z,100.00
2023-02-26T03:50:54.189Z,100.00
2023-02-26T03:53:40.917Z,100.00
2023-02-26T03:56:28.605Z,100.00
2023-02-26T03:59:22.097Z,100.00
2023-02-26T04:02:06.869Z,100.00
2023-02-26T04:04:46.076Z,100.00
2023-02-26T04:07:15.186Z,100.00
2023-02-26T04:09:44.352Z,100.00
2023-02-26T04:12:11.850Z,100.00
2023-02-26T04:14:43.143Z,100.00
2023-02-26T04:17:10.513Z,100.00
2023-02-26T04:19:38.211Z,100.00
2023-02-26T04:22:06.217Z,100.00
2023-02-26T04:24:33.842Z,100.00
2023-02-26T04:27:02.620Z,100.00
2023-02-26T04:29:31.090Z,100.00
2023-02-26T04:31:58.598Z,100.00
2023-02-26T04:34:26.416Z,100.00
2023-02-26T04:36:54.063Z,100.00
2023-02-26T04:39:22.141Z,100.00
2023-02-26T04:41:49.395Z,100.00
2023-02-26T04:44:17.048Z,100.00
2023-02-26T04:46:44.572Z,100.00
2023-02-26T04:49:13.328Z,100.00
2023-02-26T04:51:44.274Z,100.00
2023-02-26T04:54:14.521Z,100.00
2023-02-26T04:56:42.521Z,100.00
2023-02-26T04:59:10.464Z,100.00
2023-02-26T05:01:37.925Z,100.00
2023-02-26T05:04:08.785Z,100.00
2023-02-26T05:06:37.061Z,100.00
2023-02-26T05:09:04.972Z,100.00
2023-02-26T05:11:33.098Z,100.00
2023-02-26T05:14:00.721Z,100.00
2023-02-26T05:16:28.448Z,100.00
2023-02-26T05:18:58.327Z,100.00
2023-02-26T05:21:26.356Z,100.00
2023-02-26T05:23:54.217Z,100.00
2023-02-26T05:26:21.461Z,100.00
2023-02-26T05:28:49.429Z,100.00
2023-02-26T05:31:16.946Z,100.00
2023-02-26T05:33:45.140Z,100.00
2023-02-26T05:36:13.258Z,100.00
2023-02-26T05:38:40.968Z,100.00
2023-02-26T05:41:08.125Z,100.00
2023-02-26T05:43:36.297Z,100.00
2023-02-26T05:46:03.504Z,100.00
2023-02-26T05:48:31.088Z,100.00
2023-02-26T05:50:58.403Z,100.00
2023-02-26T05:53:26.125Z,100.00
2023-02-26T05:55:54.059Z,100.00
2023-02-26T05:58:21.794Z,100.00
2023-02-26T06:00:49.134Z,100.00
2023-02-26T06:03:16.899Z,100.00
2023-02-26T06:05:44.185Z,100.00
2023-02-26T06:08:15.696Z,100.00
2023-02-26T06:10:43.651Z,100.00
2023-02-26T06:13:11.357Z,100.00
2023-02-26T06:15:38.747Z,100.00
2023-02-26T06:18:06.395Z,100.00
2023-02-26T06:20:33.605Z,100.00
2023-02-26T06:23:01.264Z,100.00
2023-02-26T06:25:28.388Z,100.00
2023-02-26T06:27:55.890Z,100.00
2023-02-26T06:30:24.062Z,100.00
2023-02-26T06:32:51.882Z,100.00
2023-02-26T06:35:19.198Z,100.00
2023-02-26T06:37:46.744Z,100.00
2023-02-26T06:40:14.198Z,100.00
2023-02-26T06:42:41.616Z,100.00
2023-02-26T06:45:09.267Z,100.00
2023-02-26T06:47:36.958Z,100.00
2023-02-26T06:50:05.395Z,100.00
2023-02-26T06:52:33.445Z,100.00
2023-02-26T06:55:00.851Z,100.00
2023-02-26T06:57:28.463Z,100.00
2023-02-26T06:59:55.790Z,100.00
2023-02-26T07:02:24.002Z,100.00
2023-02-26T07:04:51.483Z,100.00
2023-02-26T07:07:19.163Z,100.00
2023-02-26T07:09:46.541Z,100.00
2023-02-26T07:12:14.586Z,100.00
2023-02-26T07:14:43.375Z,100.00
2023-02-26T07:17:19.875Z,100.00
2023-02-26T07:19:48.457Z,100.00
2023-02-26T07:22:17.205Z,100.00
2023-02-26T07:24:45.217Z,100.00
2023-02-26T07:27:13.136Z,100.00
2023-02-26T07:29:40.381Z,100.00
2023-02-26T07:32:08.115Z,100.00
2023-02-26T07:34:35.678Z,100.00
2023-02-26T07:37:03.599Z,100.00
2023-02-26T07:39:31.205Z,100.00
2023-02-26T07:41:58.878Z,100.00
2023-02-26T07:44:28.946Z,100.00
2023-02-26T07:46:56.545Z,100.00
2023-02-26T07:49:24.307Z,100.00
2023-02-26T07:51:52.153Z,100.00
2023-02-26T07:54:19.552Z,100.00
2023-02-26T07:56:47.195Z,100.00
2023-02-26T07:59:14.489Z,100.00
2023-02-26T08:01:42.112Z,100.00
2023-02-26T08:04:09.463Z,100.00
2023-02-26T08:06:37.271Z,100.00
2023-02-26T08:09:05.512Z,100.00
2023-02-26T08:11:35.665Z,100.00
2023-02-26T08:14:03.414Z,100.00
2023-02-26T08:16:31.154Z,100.00
2023-02-26T08:18:58.254Z,100.00
2023-02-26T08:21:25.949Z,100.00
2023-02-26T08:23:53.333Z,100.00
2023-02-26T08:26:21.014Z,100.00
2023-02-26T08:28:48.612Z,100.00
2023-02-26T08:31:16.332Z,100.00
2023-02-26T08:33:43.836Z,100.00
2023-02-26T08:36:12.165Z,100.00
2023-02-26T08:38:39.783Z,100.00
2023-02-26T08:41:08.386Z,100.00
2023-02-26T08:43:36.895Z,100.00
2023-02-26T08:46:04.960Z,100.00
2023-02-26T08:48:32.322Z,100.00
2023-02-26T08:50:59.896Z,100.00
2023-02-26T08:53:27.379Z,100.00
2023-02-26T08:55:54.880Z,100.00
2023-02-26T08:58:22.386Z,100.00
2023-02-26T09:00:50.090Z,100.00
2023-02-26T09:03:18.502Z,100.00
2023-02-26T09:05:46.000Z,100.00
2023-02-26T09:08:16.138Z,100.00
2023-02-26T09:10:43.879Z,100.00
2023-02-26T09:13:11.237Z,100.00
2023-02-26T09:15:38.899Z,100.00
2023-02-26T09:18:06.697Z,100.00
2023-02-26T09:20:34.370Z,100.00
2023-02-26T09:23:01.684Z,100.00
2023-02-26T09:25:29.222Z,100.00
2023-02-26T09:27:57.828Z,100.00
2023-02-26T09:30:26.653Z,100.00
2023-02-26T09:32:53.890Z,100.00
2023-02-26T09:35:21.568Z,100.00
2023-02-26T09:37:48.917Z,100.00
2023-02-26T09:40:41.281Z,100.00
2023-02-26T09:43:16.600Z,100.00
2023-02-26T09:45:46.014Z,100.00
2023-02-26T09:48:15.611Z,100.00
2023-02-26T09:51:09.866Z,100.00
2023-02-26T09:53:41.029Z,100.00
2023-02-26T09:56:14.974Z,100.00
2023-02-26T09:58:45.162Z,100.00
2023-02-26T10:01:23.466Z,100.00
2023-02-26T10:03:53.832Z,100.00
2023-02-26T10:06:28.977Z,100.00
2023-02-26T10:09:32.393Z,100.00
2023-02-26T10:12:13.848Z,100.00
2023-02-26T10:15:15.598Z,100.00
2023-02-26T10:18:08.801Z,100.00
2023-02-26T10:20:59.076Z,100.00
2023-02-26T10:23:44.096Z,100.00
2023-02-26T10:26:20.912Z,100.00
2023-02-26T10:28:56.735Z,100.00
2023-02-26T10:31:45.672Z,100.00
2023-02-26T10:34:43.424Z,100.00
2023-02-26T10:37:37.611Z,96.82
2023-02-26T10:40:19.734Z,97.17
2023-02-26T10:43:24.503Z,93.19
2023-02-26T10:46:30.070Z,94.04
2023-02-26T10:49:23.684Z,90.62
2023-02-26T10:51:53.051Z,91.48
2023-02-26T10:54:38.205Z,90.33
2023-02-26T10:57:09.581Z,89.08
2023-02-26T10:59:36.867Z,89.69
2023-02-26T11:02:04.631Z,90.26
2023-02-26T11:04:32.249Z,87.08
2023-02-26T11:07:02.441Z,87.36
2023-02-26T11:09:42.415Z,86.54
2023-02-26T11:12:14.835Z,89.74
2023-02-26T11:14:43.159Z,87.47
2023-02-26T11:17:22.586Z,89.24
2023-02-26T11:19:57.206Z,90.75
2023-02-26T11:22:30.240Z,93.26
2023-02-26T11:24:58.284Z,92.40
2023-02-26T11:27:32.092Z,91.30
2023-02-26T11:30:03.532Z,91.71
2023-02-26T11:32:33.881Z,92.18
2023-02-26T11:35:01.211Z,92.96
2023-02-26T11:37:38.488Z,94.36
2023-02-26T11:40:12.091Z,96.38
2023-02-26T11:42:53.249Z,94.90
2023-02-26T11:45:21.462Z,93.77
2023-02-26T11:47:51.573Z,96.88
2023-02-26T11:50:23.440Z,96.09
2023-02-26T11:53:05.659Z,97.74
2023-02-26T11:55:37.390Z,96.76
2023-02-26T11:58:15.415Z,96.11
2023-02-26T12:00:42.873Z,97.40
2023-02-26T12:03:17.818Z,98.07
2023-02-26T12:05:45.616Z,97.78
2023-02-26T12:08:26.718Z,94.90
2023-02-26T12:11:30.245Z,94.64
2023-02-26T12:14:28.799Z,92.74
2023-02-26T12:17:02.160Z,90.93
2023-02-26T12:20:00.753Z,90.01
2023-02-26T12:22:57.184Z,89.59
2023-02-26T12:25:52.836Z,90.20
2023-02-26T12:28:28.417Z,90.19
2023-02-26T12:31:06.586Z,91.62
2023-02-26T12:33:42.730Z,90.57
2023-02-26T12:36:36.345Z,91.16
2023-02-26T12:39:35.289Z,88.77
2023-02-26T12:42:11.570Z,87.47
2023-02-26T12:44:44.868Z,89.67
2023-02-26T12:47:18.537Z,86.01
2023-02-26T12:50:12.119Z,87.68
2023-02-26T12:53:04.746Z,87.39
2023-02-26T12:55:38.323Z,87.43
2023-02-26T12:58:21.762Z,90.33
2023-02-26T13:01:13.919Z,86.87
2023-02-26T13:03:50.309Z,86.23
2023-02-26T13:06:24.024Z,86.30
2023-02-26T13:09:13.196Z,84.34
2023-02-26T13:12:12.733Z,85.66
2023-02-26T13:14:59.280Z,87.26
2023-02-26T13:17:45.684Z,88.48
2023-02-26T13:20:20.119Z,92.18
2023-02-26T13:22:57.053Z,87.12
2023-02-26T13:25:38.291Z,87.28
2023-02-26T13:28:19.631Z,88.81
2023-02-26T13:30:50.771Z,84.45
2023-02-26T13:33:22.018Z,87.22
2023-02-26T13:35:51.699Z,85.85
2023-02-26T13:38:24.644Z,87.96
2023-02-26T13:41:03.627Z,85.11
2023-02-26T13:44:02.704Z,85.92
2023-02-26T13:46:47.492Z,86.84
2023-02-26T13:49:26.051Z,90.76
2023-02-26T13:51:54.727Z,90.70
2023-02-26T13:54:22.019Z,88.82
2023-02-26T13:57:28.608Z,88.12
2023-02-26T14:00:12.597Z,87.92
2023-02-26T14:02:52.604Z,87.99
2023-02-26T14:05:46.402Z,86.54
2023-02-26T14:08:46.779Z,88.35
2023-02-26T14:11:32.599Z,87.38
2023-02-26T14:14:36.729Z,88.04
2023-02-26T14:17:09.774Z,86.04
2023-02-26T14:19:57.621Z,87.75
2023-02-26T14:22:31.148Z,87.92
2023-02-26T14:24:59.559Z,87.97
2023-02-26T14:27:47.423Z,87.71
2023-02-26T14:30:28.688Z,89.48
2023-02-26T14:32:59.227Z,90.47
2023-02-26T14:35:29.442Z,88.35
2023-02-26T14:38:12.781Z,91.36
2023-02-26T14:40:45.132Z,89.49
2023-02-26T14:43:19.578Z,88.46
2023-02-26T14:45:48.057Z,90.90
2023-02-26T14:48:17.854Z,90.23
2023-02-26T14:51:23.264Z,90.25
2023-02-26T14:54:18.599Z,91.01
2023-02-26T14:56:50.352Z,91.67
2023-02-26T14:59:46.485Z,92.35
2023-02-26T15:02:33.905Z,90.82
2023-02-26T15:05:39.238Z,92.60
2023-02-26T15:08:22.210Z,91.09
2023-02-26T15:11:10.572Z,93.83
2023-02-26T15:13:42.621Z,92.42
2023-02-26T15:16:12.857Z,93.02
2023-02-26T15:19:15.554Z,92.50
2023-02-26T15:22:00.136Z,94.89
2023-02-26T15:24:30.501Z,94.89
2023-02-26T15:27:02.083Z,93.32
2023-02-26T15:29:32.690Z,95.05
2023-02-26T15:32:20.619Z,95.13
2023-02-26T15:34:54.941Z,95.87
2023-02-26T15:37:26.427Z,95.59
2023-02-26T15:39:54.079Z,95.91
2023-02-26T15:42:22.976Z,96.03
2023-02-26T15:44:57.173Z,96.50
2023-02-26T15:47:24.548Z,95.37
2023-02-26T15:49:54.092Z,96.54
2023-02-26T15:52:23.515Z,96.79
2023-02-26T15:54:55.053Z,96.47
2023-02-26T15:57:24.414Z,100.00
2023-02-26T15:59:55.415Z,97.39
2023-02-26T16:02:27.075Z,96.69
2023-02-26T16:04:55.539Z,98.17
2023-02-26T16:07:23.104Z,96.85
2023-02-26T16:09:52.955Z,98.36
2023-02-26T16:12:27.693Z,99.45
2023-02-26T16:15:01.289Z,99.92
2023-02-26T16:17:33.909Z,100.00
2023-02-26T16:20:11.015Z,100.00
2023-02-26T16:22:52.250Z,100.00
2023-02-26T16:25:52.431Z,100.00
2023-02-26T16:28:22.590Z,100.00
2023-02-26T16:30:54.334Z,100.00
2023-02-26T16:33:24.197Z,100.00
2023-02-26T16:36:03.383Z,100.00
2023-02-26T16:38:53.939Z,100.00
2023-02-26T16:41:24.114Z,100.00
2023-02-26T16:43:57.031Z,100.00
2023-02-26T16:46:46.093Z,100.00
2023-02-26T16:49:24.631Z,100.00
2023-02-26T16:51:53.271Z,100.00
2023-02-26T16:54:46.651Z,100.00
2023-02-26T16:57:20.031Z,100.00
2023-02-26T16:59:50.160Z,100.00
2023-02-26T17:02:29.626Z,100.00
2023-02-26T17:05:03.741Z,100.00
2023-02-26T17:07:36.557Z,100.00
2023-02-26T17:10:20.914Z,100.00
2023-02-26T17:12:51.223Z,100.00
2023-02-26T17:15:29.060Z,100.00
2023-02-26T17:17:58.158Z,100.00
2023-02-26T17:20:26.350Z,100.00
2023-02-26T17:22:54.790Z,100.00
2023-02-26T17:25:23.833Z,100.00
2023-02-26T17:27:51.785Z,100.00
2023-02-26T17:30:21.795Z,100.00
2023-02-26T17:32:49.613Z,100.00
2023-02-26T17:35:18.917Z,100.00
2023-02-26T17:37:47.424Z,100.00
2023-02-26T17:40:19.768Z,100.00
2023-02-26T17:42:47.736Z,100.00
2023-02-26T17:45:16.089Z,100.00
2023-02-26T17:47:44.706Z,100.00
2023-02-26T17:50:25.299Z,100.00
2023-02-26T17:52:53.239Z,100.00
2023-02-26T17:55:20.648Z,100.00
2023-02-26T17:57:48.426Z,100.00
2023-02-26T18:00:17.499Z,100.00
2023-02-26T18:02:46.049Z,100.00
2023-02-26T18:05:13.467Z,99.90
2023-02-26T18:07:41.369Z,100.00
2023-02-26T18:10:12.730Z,100.00
2023-02-26T18:12:40.643Z,100.00
2023-02-26T18:15:10.350Z,100.00
2023-02-26T18:17:38.264Z,99.53
2023-02-26T18:20:09.663Z,99.11
2023-02-26T18:22:37.370Z,98.59
2023-02-26T18:25:05.246Z,97.71
2023-02-26T18:27:33.289Z,97.62
2023-02-26T18:30:01.588Z,96.84
2023-02-26T18:32:29.355Z,97.38
2023-02-26T18:34:56.799Z,97.26
2023-02-26T18:37:26.380Z,97.67
2023-02-26T18:39:53.740Z,97.56
2023-02-26T18:42:23.697Z,98.75
2023-02-26T18:44:52.036Z,98.41
2023-02-26T18:47:20.936Z,97.87
2023-02-26T18:49:49.955Z,95.58
2023-02-26T18:52:18.217Z,94.94
2023-02-26T18:54:45.652Z,95.17
2023-02-26T18:57:13.259Z,96.65
2023-02-26T18:59:40.828Z,95.48
2023-02-26T19:02:12.157Z,94.97
2023-02-26T19:04:40.678Z,95.73
2023-02-26T19:07:08.668Z,93.27
2023-02-26T19:09:36.117Z,92.77
2023-02-26T19:12:04.438Z,93.89
2023-02-26T19:14:32.089Z,92.06
2023-02-26T19:17:00.487Z,91.05
2023-02-26T19:19:27.867Z,90.95
2023-02-26T19:21:56.230Z,88.85
2023-02-26T19:24:24.048Z,88.96
2023-02-26T19:26:52.336Z,89.31
2023-02-26T19:29:20.775Z,88.92
2023-02-26T19:31:48.648Z,86.82
2023-02-26T19:34:16.406Z,87.75
2023-02-26T19:36:48.393Z,86.49
2023-02-26T19:39:17.112Z,86.35
2023-02-26T19:41:46.193Z,87.18
2023-02-26T19:44:17.266Z,86.37
2023-02-26T19:46:45.163Z,85.77
2023-02-26T19:49:13.971Z,86.34
2023-02-26T19:51:45.229Z,85.61
2023-02-26T19:54:15.778Z,83.95
2023-02-26T19:56:44.231Z,83.79
2023-02-26T19:59:12.880Z,83.83
2023-02-26T20:01:42.393Z,86.35
2023-02-26T20:04:10.400Z,83.44
2023-02-26T20:06:38.393Z,84.40
2023-02-26T20:09:07.703Z,83.37
2023-02-26T20:11:35.723Z,83.29
2023-02-26T20:14:03.076Z,83.91
2023-02-26T20:16:30.941Z,83.41
2023-02-26T20:18:58.396Z,84.31
2023-02-26T20:21:27.525Z,84.63
2023-02-26T20:23:55.815Z,84.70
2023-02-26T20:26:23.908Z,85.96
2023-02-26T20:28:51.407Z,85.77
2023-02-26T20:31:19.277Z,87.86
2023-02-26T20:33:46.959Z,88.41
2023-02-26T20:36:14.838Z,89.01
2023-02-26T20:38:43.051Z,89.98
2023-02-26T20:41:11.022Z,90.23
2023-02-26T20:43:38.666Z,91.58
2023-02-26T20:46:06.487Z,91.51
2023-02-26T20:48:34.842Z,92.77
2023-02-26T20:51:06.473Z,95.23
2023-02-26T20:53:35.730Z,94.34
2023-02-26T20:56:04.321Z,94.96
2023-02-26T20:58:32.440Z,95.35
2023-02-26T21:01:00.868Z,97.15
2023-02-26T21:03:28.268Z,97.68
2023-02-26T21:05:56.102Z,97.18
2023-02-26T21:08:23.914Z,96.70
2023-02-26T21:10:52.013Z,97.64
2023-02-26T21:13:19.991Z,99.03
2023-02-26T21:15:50.362Z,100.00
2023-02-26T21:18:17.831Z,100.00
2023-02-26T21:20:45.675Z,98.92
2023-02-26T21:23:13.021Z,100.00
2023-02-26T21:25:41.078Z,100.00
2023-02-26T21:28:08.545Z,100.00
2023-02-26T21:30:36.559Z,100.00
2023-02-26T21:33:03.973Z,100.00
2023-02-26T21:35:31.803Z,100.00
2023-02-26T21:37:59.191Z,100.00
2023-02-26T21:40:26.963Z,100.00
2023-02-26T21:42:54.306Z,100.00
2023-02-26T21:45:22.018Z,100.00
2023-02-26T21:47:49.214Z,100.00
2023-02-26T21:50:17.145Z,100.00
2023-02-26T21:52:44.941Z,100.00
2023-02-26T21:55:12.797Z,100.00
2023-02-26T21:57:40.300Z,100.00
2023-02-26T22:00:10.533Z,100.00
2023-02-26T22:02:40.975Z,100.00
2023-02-26T22:05:10.204Z,100.00
2023-02-26T22:07:38.544Z,100.00
2023-02-26T22:10:08.284Z,100.00
2023-02-26T22:12:35.814Z,100.00
2023-02-26T22:15:03.868Z,100.00
2023-02-26T22:17:31.390Z,100.00
2023-02-26T22:19:58.979Z,100.00
2023-02-26T22:22:27.116Z,100.00
2023-02-26T22:24:54.664Z,100.00
2023-02-26T22:27:22.620Z,100.00
2023-02-26T22:29:50.374Z,100.00
2023-02-26T22:32:17.892Z,100.00
2023-02-26T22:34:46.257Z,100.00
2023-02-26T22:37:13.811Z,100.00
2023-02-26T22:39:42.626Z,100.00
2023-02-26T22:42:09.956Z,100.00
2023-02-26T22:44:37.792Z,100.00
2023-02-26T22:47:05.016Z,100.00
2023-02-26T22:49:32.517Z,100.00
2023-02-26T22:51:59.959Z,100.00
2023-02-26T22:54:27.690Z,100.00
2023-02-26T22:56:55.037Z,100.00
2023-02-26T22:59:22.696Z,100.00
2023-02-26T23:01:50.042Z,100.00
2023-02-26T23:04:18.244Z,100.00
2023-02-26T23:06:45.486Z,100.00
2023-02-26T23:09:13.062Z,100.00
2023-02-26T23:11:40.277Z,100.00
2023-02-26T23:14:08.263Z,100.00
2023-02-26T23:16:35.381Z,100.00
2023-02-26T23:19:03.057Z,100.00
2023-02-26T23:21:31.084Z,100.00
2023-02-26T23:23:58.850Z,100.00
2023-02-26T23:26:26.200Z,100.00
2023-02-26T23:28:53.740Z,100.00
2023-02-26T23:31:21.216Z,100.00
2023-02-26T23:33:48.974Z,100.00
2023-02-26T23:36:16.302Z,100.00
2023-02-26T23:38:43.823Z,100.00
2023-02-26T23:41:11.140Z,100.00
2023-02-26T23:43:39.299Z,100.00
2023-02-26T23:46:06.762Z,100.00
2023-02-26T23:48:34.335Z,100.00
2023-02-26T23:51:01.949Z,100.00
2023-02-26T23:53:29.543Z,100.00
2023-02-26T23:55:59.793Z,100.00
2023-02-26T23:58:28.878Z,100.00
